Time;durP1;ratioP1;P1;durP2;ratioP2;P2;SDS_P1;SDS_P2;PMS_P1;PMS_P2;Temp;Humidity;BMP_temperature;BMP_pressure;BME280_temperature;BME280_humidity;BME280_pressure;Samples;Min_cycle;Max_cycle;Signal;HPM_P1;HPM_P2
2022/01/17 00:02:05;;;;;;;39.38;21.52;;;;;;;2.38;78.87;100447.78;2619340;54;20043;-72
2022/01/17 00:04:35;;;;;;;41.55;23.65;;;;;;;2.37;79.04;100453.94;2619925;54;20030;-70
2022/01/17 00:07:05;;;;;;;35.55;20.40;;;;;;;2.39;79.30;100460.72;2618757;47;20074;-71
2022/01/17 00:09:35;;;;;;;40.03;21.75;;;;;;;2.41;78.88;100453.63;2618744;54;20125;-71
2022/01/17 00:12:05;;;;;;;39.97;21.38;;;;;;;2.40;79.17;100445.88;2617810;48;20086;-71
2022/01/17 00:14:40;;;;;;;42.53;23.92;;;;;;;2.45;79.19;100434.22;2618959;54;20034;-70
2022/01/17 00:17:25;;;;;;;39.85;22.38;;;;;;;2.45;78.94;100439.44;2617996;47;20034;-71
2022/01/17 00:19:56;;;;;;;46.40;23.33;;;;;;;2.35;78.62;100448.81;2618786;54;20034;-70
2022/01/17 00:22:26;;;;;;;37.95;21.15;;;;;;;2.31;78.89;100441.28;2618759;54;20038;-70
2022/01/17 00:24:56;;;;;;;43.85;21.90;;;;;;;2.30;79.24;100442.22;2618437;54;20530;-71
2022/01/17 00:27:26;;;;;;;37.50;22.02;;;;;;;2.32;79.42;100441.16;2617985;54;20023;-71
2022/01/17 00:29:58;;;;;;;42.58;22.45;;;;;;;2.33;79.42;100445.47;2618140;54;20546;-72
2022/01/17 00:32:28;;;;;;;37.03;20.50;;;;;;;2.31;79.02;100444.72;2618543;54;20026;-72
2022/01/17 00:34:57;;;;;;;38.55;21.73;;;;;;;2.32;78.95;100451.59;2626349;47;20018;-71
2022/01/17 00:37:27;;;;;;;34.38;19.38;;;;;;;2.23;79.15;100460.03;2626537;54;20058;-73
2022/01/17 00:39:56;;;;;;;40.70;21.48;;;;;;;2.30;79.62;100460.47;2627078;54;20035;-71
2022/01/17 00:42:26;;;;;;;40.38;21.63;;;;;;;2.36;79.60;100457.47;2626545;54;20037;-71
2022/01/17 00:45:01;;;;;;;35.78;18.70;;;;;;;2.40;79.64;100445.88;2626332;54;20029;-73
2022/01/17 00:47:30;;;;;;;41.65;21.35;;;;;;;2.43;79.37;100448.31;2626765;46;20053;-72
2022/01/17 00:50:00;;;;;;;32.47;18.00;;;;;;;2.43;79.50;100461.34;2627497;54;20054;-70
2022/01/17 00:52:30;;;;;;;32.20;18.67;;;;;;;2.39;78.80;100437.22;2627476;54;20033;-71
2022/01/17 00:54:59;;;;;;;35.17;19.08;;;;;;;2.44;79.06;100435.13;2626920;54;20039;-70
2022/01/17 00:57:29;;;;;;;34.47;18.75;;;;;;;2.48;79.36;100446.22;2620425;31;20555;-71
2022/01/17 01:00:02;;;;;;;35.15;19.95;;;;;;;2.54;79.36;100429.34;2619191;54;20030;-71
2022/01/17 01:02:34;;;;;;;35.83;19.83;;;;;;;2.52;78.96;100428.59;2619451;54;20026;-70
2022/01/17 01:05:06;;;;;;;37.67;20.88;;;;;;;2.58;79.02;100430.81;2619077;54;20033;-70
2022/01/17 01:07:36;;;;;;;29.88;17.13;;;;;;;2.57;78.52;100434.31;2618807;47;20034;-70
2022/01/17 01:10:10;;;;;;;33.08;18.23;;;;;;;2.52;78.83;100431.19;2619251;54;20057;-72
2022/01/17 01:12:40;;;;;;;31.83;18.88;;;;;;;2.51;78.64;100442.59;2619847;39;20415;-71
2022/01/17 01:15:22;;;;;;;30.13;17.65;;;;;;;2.52;78.63;100450.31;2619340;54;20033;-70
2022/01/17 01:17:54;;;;;;;32.72;18.25;;;;;;;2.50;78.85;100464.41;2625407;54;20038;-70
2022/01/17 01:20:51;;;;;;;29.00;16.35;;;;;;;2.45;78.42;100468.16;2628219;54;20561;-71
2022/01/17 01:28:44;;;;;;;26.55;14.93;;;;;;;2.40;78.11;100464.97;2628353;54;20026;-69
2022/01/17 01:31:26;;;;;;;28.48;16.30;;;;;;;2.36;77.99;100465.28;2628046;54;20046;-70
2022/01/17 01:34:03;;;;;;;27.05;16.15;;;;;;;2.35;78.47;100471.44;2628043;54;20115;-71
2022/01/17 01:36:34;;;;;;;30.83;16.00;;;;;;;2.38;78.32;100464.25;2635694;39;20463;-70
2022/01/17 01:39:03;;;;;;;29.65;16.42;;;;;;;2.38;78.52;100466.03;2628112;54;20033;-69
2022/01/17 01:41:42;;;;;;;28.27;16.30;;;;;;;2.39;78.35;100458.09;2620022;47;20086;-70
2022/01/17 01:44:15;;;;;;;26.98;15.82;;;;;;;2.35;78.60;100455.78;2619243;54;20036;-70
2022/01/17 01:46:49;;;;;;;27.88;16.52;;;;;;;2.38;78.20;100458.22;2619152;54;20046;-70
2022/01/17 01:49:20;;;;;;;28.73;16.33;;;;;;;2.35;78.46;100459.25;2619294;54;20124;-69
2022/01/17 01:51:50;;;;;;;30.48;17.00;;;;;;;2.44;78.48;100461.25;2622423;39;20434;-72
2022/01/17 01:54:20;;;;;;;30.15;16.20;;;;;;;2.42;78.32;100459.69;2621806;54;20030;-70
2022/01/17 01:56:52;;;;;;;27.85;16.65;;;;;;;2.34;78.16;100461.97;2619805;54;20061;-70
2022/01/17 01:59:22;;;;;;;27.77;16.25;;;;;;;2.27;78.50;100460.66;2618910;54;20026;-70
2022/01/17 02:01:55;;;;;;;30.40;17.25;;;;;;;2.24;78.84;100461.69;2619704;39;20451;-69
2022/01/17 02:04:24;;;;;;;30.83;15.80;;;;;;;2.16;78.86;100463.97;2619149;54;20037;-71
2022/01/17 02:06:54;;;;;;;30.48;16.90;;;;;;;2.13;79.09;100461.56;2618961;54;20074;-71
2022/01/17 02:09:24;;;;;;;30.98;16.77;;;;;;;2.15;79.16;100472.72;2619193;54;20585;-70
2022/01/17 02:11:55;;;;;;;30.30;17.48;;;;;;;2.18;78.87;100485.59;2619178;54;20026;-69
2022/01/17 02:14:24;;;;;;;31.17;17.17;;;;;;;2.07;79.12;100488.88;2619149;54;20038;-71
2022/01/17 02:16:56;;;;;;;31.58;16.52;;;;;;;2.08;79.36;100489.69;2619070;54;20052;-71
2022/01/17 02:19:28;;;;;;;31.20;16.30;;;;;;;2.07;79.27;100491.47;2618792;54;20082;-70
2022/01/17 02:22:00;;;;;;;30.48;17.02;;;;;;;2.04;79.21;100483.00;2619391;39;20512;-70
2022/01/17 02:24:30;;;;;;;32.90;16.20;;;;;;;2.08;79.33;100468.84;2618066;47;20589;-70
2022/01/17 02:27:00;;;;;;;30.77;17.75;;;;;;;2.09;79.61;100463.53;2619164;54;20045;-70
2022/01/17 02:29:30;;;;;;;29.45;16.15;;;;;;;2.10;79.25;100469.59;2619478;39;20514;-70
2022/01/17 02:32:00;;;;;;;34.33;18.45;;;;;;;2.10;79.63;100474.81;2618175;54;20030;-71
2022/01/17 02:34:29;;;;;;;32.45;17.35;;;;;;;2.10;79.42;100474.81;2618612;47;20063;-71
2022/01/17 02:37:02;;;;;;;31.90;16.83;;;;;;;2.08;79.47;100480.13;2618898;54;20027;-70
2022/01/17 02:39:31;;;;;;;32.30;17.13;;;;;;;2.10;79.45;100482.63;2618366;54;20031;-71
2022/01/17 02:42:03;;;;;;;30.00;17.02;;;;;;;2.10;79.89;100490.47;2618824;54;20027;-72
2022/01/17 02:44:33;;;;;;;31.13;16.48;;;;;;;2.06;79.34;100486.38;2619218;54;20041;-71
2022/01/17 02:47:02;;;;;;;32.60;17.42;;;;;;;2.04;79.52;100485.59;2619294;54;20617;-69
2022/01/17 02:49:32;;;;;;;31.27;15.60;;;;;;;2.01;79.77;100471.00;2619771;54;20562;-69
2022/01/17 02:52:04;;;;;;;34.25;16.92;;;;;;;1.98;79.79;100471.19;2619576;54;20055;-70
2022/01/17 02:54:34;;;;;;;33.88;17.63;;;;;;;1.97;80.25;100475.59;2619171;54;20034;-70
2022/01/17 02:57:04;;;;;;;36.28;18.95;;;;;;;2.03;80.24;100474.34;2618758;39;20422;-70
2022/01/17 02:59:34;;;;;;;34.25;18.23;;;;;;;2.01;80.17;100471.00;2619211;54;20033;-71
2022/01/17 03:02:04;;;;;;;36.38;18.10;;;;;;;2.00;80.48;100477.16;2617720;47;20039;-70
2022/01/17 03:04:34;;;;;;;31.67;17.45;;;;;;;1.97;80.52;100465.16;2622242;54;20778;-70
2022/01/17 03:07:06;;;;;;;36.78;18.17;;;;;;;1.95;80.21;100459.19;2629191;54;20030;-71
2022/01/17 03:09:45;;;;;;;37.28;19.05;;;;;;;2.01;80.27;100455.34;2629090;54;20010;-70
2022/01/17 03:12:16;;;;;;;38.83;19.02;;;;;;;2.09;80.81;100453.09;2628817;54;20039;-70
2022/01/17 03:14:46;;;;;;;35.65;17.35;;;;;;;2.09;80.25;100444.44;2629153;54;20031;-69
2022/01/17 03:17:15;;;;;;;36.28;18.30;;;;;;;2.04;80.44;100436.91;2628179;46;20034;-70
2022/01/17 03:19:45;;;;;;;37.78;18.08;;;;;;;1.99;80.42;100452.84;2628839;54;20038;-69
2022/01/17 03:22:17;;;;;;;35.97;18.52;;;;;;;1.97;80.57;100462.53;2628216;54;20098;-70
2022/01/17 03:24:47;;;;;;;37.38;18.25;;;;;;;2.02;80.63;100454.41;2627472;54;20031;-69
2022/01/17 03:27:18;;;;;;;35.72;18.55;;;;;;;2.08;80.67;100463.63;2627542;47;20019;-70
2022/01/17 03:29:48;;;;;;;32.47;16.73;;;;;;;2.01;80.43;100459.75;2628172;54;20040;-69
2022/01/17 03:32:17;;;;;;;34.90;16.65;;;;;;;2.03;80.85;100465.69;2627523;54;20027;-70
2022/01/17 03:34:48;;;;;;;35.30;18.13;;;;;;;1.98;80.69;100464.19;2619238;54;20045;-70
2022/01/17 03:37:20;;;;;;;38.63;19.30;;;;;;;2.01;81.07;100457.97;2619193;54;20078;-70
2022/01/17 03:39:49;;;;;;;40.72;17.90;;;;;;;1.99;80.75;100467.66;2619281;54;20049;-70
2022/01/17 03:42:19;;;;;;;41.13;18.15;;;;;;;1.90;81.18;100476.88;2618634;47;20122;-71
2022/01/17 03:44:50;;;;;;;35.40;17.98;;;;;;;1.94;81.02;100488.81;2619162;54;20045;-70
2022/01/17 03:47:20;;;;;;;36.13;18.02;;;;;;;1.92;81.00;100474.22;2618607;47;20030;-71
2022/01/17 03:49:49;;;;;;;34.60;17.90;;;;;;;1.98;81.67;100472.03;2618729;47;20026;-72
2022/01/17 03:52:21;;;;;;;36.90;17.15;;;;;;;2.05;80.91;100475.09;2618387;47;20023;-69
2022/01/17 03:54:52;;;;;;;32.17;16.38;;;;;;;2.10;81.16;100474.81;2619031;54;20035;-69
2022/01/17 03:57:22;;;;;;;38.55;19.27;;;;;;;2.07;80.85;100475.81;2618602;54;20039;-69
2022/01/17 03:59:52;;;;;;;38.38;18.73;;;;;;;2.17;81.27;100466.50;2618725;54;20605;-69
2022/01/17 04:02:21;;;;;;;34.03;17.48;;;;;;;2.16;81.18;100475.25;2618722;54;20038;-70
2022/01/17 04:04:52;;;;;;;34.42;16.55;;;;;;;2.19;81.13;100471.59;2618797;54;20038;-71
2022/01/17 04:07:24;;;;;;;34.78;16.83;;;;;;;2.23;80.57;100466.09;2618352;54;20034;-70
2022/01/17 04:09:54;;;;;;;36.25;17.38;;;;;;;2.18;80.60;100477.75;2618175;54;20042;-70
2022/01/17 04:12:23;;;;;;;33.97;16.25;;;;;;;2.19;80.67;100472.44;2618516;54;20155;-72
2022/01/17 04:14:55;;;;;;;35.42;15.73;;;;;;;2.20;80.52;100466.31;2618978;54;20045;-70
2022/01/17 04:17:28;;;;;;;32.15;17.27;;;;;;;2.19;80.50;100456.78;2618268;47;20078;-70
2022/01/17 04:20:07;;;;;;;29.83;16.73;;;;;;;2.29;80.71;100466.66;2619341;54;20031;-72
2022/01/17 04:22:44;;;;;;;30.55;16.50;;;;;;;2.31;80.17;100476.03;2621430;54;20050;-71
2022/01/17 04:25:14;;;;;;;32.33;16.58;;;;;;;2.31;80.46;100465.59;2621966;39;20439;-71
2022/01/17 04:27:44;;;;;;;30.17;15.43;;;;;;;2.32;80.22;100462.03;2618432;54;20052;-71
2022/01/17 04:30:15;;;;;;;27.95;15.40;;;;;;;2.33;80.22;100448.06;2618606;54;20042;-71
2022/01/17 04:32:46;;;;;;;28.23;15.52;;;;;;;2.33;80.24;100449.84;2618233;54;20037;-71
2022/01/17 04:35:20;;;;;;;28.20;15.70;;;;;;;2.37;80.36;100446.94;2618708;54;20061;-69
2022/01/17 04:37:56;;;;;;;31.13;15.82;;;;;;;2.40;80.23;100454.53;2618431;54;20054;-70
2022/01/17 04:40:26;;;;;;;28.13;15.82;;;;;;;2.40;79.96;100464.16;2617474;54;20039;-70
2022/01/17 04:42:56;;;;;;;26.92;14.27;;;;;;;2.38;80.08;100459.03;2617493;54;20550;-71
2022/01/17 04:45:26;;;;;;;30.95;15.25;;;;;;;2.34;79.90;100452.34;2618517;54;20618;-70
2022/01/17 04:47:55;;;;;;;26.67;14.30;;;;;;;2.33;80.23;100445.47;2617641;47;20031;-70
2022/01/17 04:50:29;;;;;;;32.33;16.33;;;;;;;2.28;79.99;100439.69;2619272;31;20454;-71
2022/01/17 04:53:02;;;;;;;31.70;15.95;;;;;;;2.18;80.09;100447.28;2618063;54;20066;-70
2022/01/17 04:55:33;;;;;;;33.05;15.93;;;;;;;2.21;80.04;100454.09;2619340;39;20430;-70
2022/01/17 04:58:03;;;;;;;28.38;16.02;;;;;;;2.19;80.49;100451.56;2617990;54;20051;-71
2022/01/17 05:00:32;;;;;;;33.08;16.35;;;;;;;2.20;80.42;100468.91;2618556;54;20055;-70
2022/01/17 05:03:02;;;;;;;30.42;18.35;;;;;;;2.27;80.54;100473.72;2618416;47;20058;-71
2022/01/17 05:05:32;;;;;;;33.28;17.85;;;;;;;2.28;80.31;100470.16;2618613;54;20034;-70
2022/01/17 05:08:04;;;;;;;31.33;15.98;;;;;;;2.18;80.20;100477.75;2618022;51;20027;-69
2022/01/17 05:10:34;;;;;;;34.53;16.58;;;;;;;2.18;80.39;100481.19;2619107;54;20542;-68
2022/01/17 05:13:03;;;;;;;36.25;17.00;;;;;;;2.19;80.05;100495.91;2618679;54;20574;-69
2022/01/17 05:15:38;;;;;;;31.13;16.35;;;;;;;2.15;80.36;100501.44;2617916;54;20039;-64
2022/01/17 05:20:50;;;;;;;32.33;16.58;;;;;;;2.11;80.57;100487.75;2617399;54;20059;-65
2022/01/17 05:23:22;;;;;;;36.85;17.27;;;;;;;2.12;80.46;100479.00;2617765;54;20037;-64
2022/01/17 05:25:52;;;;;;;32.55;16.20;;;;;;;2.18;80.99;100469.94;2617789;54;20567;-65
2022/01/17 05:28:21;;;;;;;33.65;17.17;;;;;;;2.25;80.23;100470.38;2617589;54;20030;-64
2022/01/17 05:30:51;;;;;;;35.88;18.45;;;;;;;2.20;80.56;100478.47;2617994;54;20039;-65
2022/01/17 05:33:21;;;;;;;32.28;16.30;;;;;;;2.26;80.27;100483.31;2617888;54;20038;-63
2022/01/17 05:35:50;;;;;;;35.72;17.92;;;;;;;2.32;80.53;100485.53;2618894;54;20077;-65
2022/01/17 05:38:22;;;;;;;34.83;17.85;;;;;;;2.31;80.29;100489.06;2618125;54;20026;-65
2022/01/17 05:40:52;;;;;;;35.00;17.63;;;;;;;2.28;80.39;100494.50;2618461;47;20045;-65
2022/01/17 05:43:22;;;;;;;32.88;17.88;;;;;;;2.30;80.15;100492.63;2618909;54;20541;-65
2022/01/17 05:45:51;;;;;;;36.83;18.35;;;;;;;2.34;80.26;100486.28;2618404;54;20067;-66
2022/01/17 05:48:21;;;;;;;35.22;18.77;;;;;;;2.36;80.27;100478.34;2619297;39;20461;-64
2022/01/17 05:50:58;;;;;;;34.83;18.35;;;;;;;2.39;80.02;100471.16;2617671;54;20051;-65
2022/01/17 05:53:30;;;;;;;36.22;17.80;;;;;;;2.41;80.40;100478.91;2618683;54;20035;-64
2022/01/17 05:56:00;;;;;;;33.88;17.33;;;;;;;2.34;79.69;100480.22;2618554;54;20085;-64
2022/01/17 05:58:29;;;;;;;34.78;17.63;;;;;;;2.30;79.90;100478.75;2618057;47;20069;-65
2022/01/17 06:00:59;;;;;;;34.17;16.80;;;;;;;2.30;80.11;100468.31;2618625;54;20073;-65
2022/01/17 06:03:29;;;;;;;32.97;17.85;;;;;;;2.36;80.12;100468.72;2618629;54;20033;-65
2022/01/17 06:05:59;;;;;;;35.22;17.80;;;;;;;2.35;79.98;100471.44;2618454;54;20162;-65
2022/01/17 06:08:31;;;;;;;36.95;19.02;;;;;;;2.22;80.14;100480.06;2618942;54;20057;-65
2022/01/17 06:11:01;;;;;;;33.05;17.35;;;;;;;2.23;80.11;100481.75;2618919;54;20026;-64
2022/01/17 06:13:30;;;;;;;34.30;17.58;;;;;;;2.23;80.21;100480.91;2621421;54;20043;-64
2022/01/17 06:16:00;;;;;;;35.30;18.02;;;;;;;2.28;80.39;100501.47;2623961;54;20038;-63
2022/01/17 06:18:30;;;;;;;31.25;16.77;;;;;;;2.26;80.30;100504.19;2624014;54;20034;-65
2022/01/17 06:20:59;;;;;;;35.95;17.65;;;;;;;2.27;80.33;100508.47;2623395;54;20023;-65
2022/01/17 06:23:31;;;;;;;36.00;18.35;;;;;;;2.28;80.13;100502.31;2618892;54;20034;-65
2022/01/17 06:26:01;;;;;;;35.10;17.58;;;;;;;2.26;80.32;100498.97;2618595;39;20450;-66
2022/01/17 06:28:31;;;;;;;35.42;17.50;;;;;;;2.32;80.47;100510.78;2618394;54;20042;-65
2022/01/17 06:31:00;;;;;;;35.60;18.05;;;;;;;2.31;80.28;100514.34;2618063;54;20055;-65
2022/01/17 06:33:30;;;;;;;34.83;17.60;;;;;;;2.28;80.51;100502.31;2618769;54;20031;-66
2022/01/17 06:36:00;;;;;;;38.95;19.38;;;;;;;2.36;80.48;100507.88;2622708;39;20458;-66
2022/01/17 06:38:32;;;;;;;33.30;17.20;;;;;;;2.40;80.29;100529.41;2622478;54;20034;-65
2022/01/17 06:41:02;;;;;;;31.33;17.48;;;;;;;2.31;79.83;100525.63;2621725;54;20026;-66
2022/01/17 06:43:31;;;;;;;33.33;16.45;;;;;;;2.34;80.00;100532.44;2621197;54;20037;-66
2022/01/17 06:46:01;;;;;;;36.22;17.05;;;;;;;2.32;80.63;100523.84;2621504;54;20073;-66
2022/01/17 06:48:31;;;;;;;35.08;17.70;;;;;;;2.37;80.38;100514.81;2621732;54;20107;-65
2022/01/17 06:51:00;;;;;;;36.65;19.05;;;;;;;2.33;80.01;100502.06;2621004;54;20027;-65
2022/01/17 06:53:33;;;;;;;37.63;19.50;;;;;;;2.32;79.84;100485.53;2621317;54;20030;-65
2022/01/17 06:56:02;;;;;;;36.90;19.58;;;;;;;2.32;79.99;100501.19;2622494;47;20031;-64
2022/01/17 06:58:32;;;;;;;40.08;20.05;;;;;;;2.33;80.23;100507.28;2623391;54;20027;-66
2022/01/17 07:01:02;;;;;;;33.47;18.75;;;;;;;2.39;80.33;100499.88;2622863;54;20060;-65
2022/01/17 07:03:32;;;;;;;36.67;18.67;;;;;;;2.39;79.76;100497.25;2622441;39;20466;-65
2022/01/17 07:06:01;;;;;;;41.47;19.35;;;;;;;2.42;80.13;100506.66;2619877;47;20038;-66
2022/01/17 07:08:34;;;;;;;39.45;19.20;;;;;;;2.46;80.22;100522.03;2618946;54;20046;-65
2022/01/17 07:11:03;;;;;;;38.63;20.17;;;;;;;2.47;79.49;100539.38;2618758;54;20043;-64
2022/01/17 07:13:33;;;;;;;38.03;18.45;;;;;;;2.36;79.98;100540.97;2617903;54;20023;-66
2022/01/17 07:16:03;;;;;;;40.70;20.73;;;;;;;2.36;79.98;100567.91;2618228;47;20030;-65
2022/01/17 07:18:32;;;;;;;36.95;18.48;;;;;;;2.44;80.22;100586.53;2617601;46;20026;-66
2022/01/17 07:21:02;;;;;;;36.13;18.95;;;;;;;2.55;80.47;100587.66;2618719;46;20061;-65
2022/01/17 07:23:34;;;;;;;29.52;17.30;;;;;;;2.54;79.84;100604.25;2618519;54;20042;-64
2022/01/17 07:26:04;;;;;;;31.23;16.75;;;;;;;2.50;79.75;100601.00;2617712;54;20031;-66
2022/01/17 07:28:34;;;;;;;30.35;17.20;;;;;;;2.48;79.91;100595.00;2618358;54;20043;-63
2022/01/17 07:31:03;;;;;;;33.13;17.40;;;;;;;2.46;79.71;100595.13;2618836;39;20406;-64
2022/01/17 07:33:37;;;;;;;30.35;17.05;;;;;;;2.43;80.00;100584.88;2618359;54;20049;-65
2022/01/17 07:36:07;;;;;;;38.00;17.65;;;;;;;2.43;80.07;100577.03;2618089;54;20027;-64
2022/01/17 07:38:40;;;;;;;34.38;17.52;;;;;;;2.44;79.70;100560.44;2618101;54;20069;-65
2022/01/17 07:41:09;;;;;;;31.00;15.98;;;;;;;2.37;80.02;100556.56;2618621;54;20087;-65
2022/01/17 07:43:58;;;;;;;32.30;16.77;;;;;;;2.37;80.27;100561.78;2618912;54;20034;-64
2022/01/17 07:46:34;;;;;;;33.13;16.63;;;;;;;2.42;80.30;100567.53;2618903;54;20031;-64
2022/01/17 07:49:13;;;;;;;31.58;16.08;;;;;;;2.47;80.08;100570.69;2618718;54;20038;-65
2022/01/17 07:51:45;;;;;;;32.33;16.30;;;;;;;2.44;80.08;100564.81;2619788;54;20550;-64
2022/01/17 07:54:18;;;;;;;32.45;17.15;;;;;;;2.45;80.18;100558.69;2618144;54;20067;-66
2022/01/17 07:56:51;;;;;;;33.70;16.38;;;;;;;2.43;80.46;100561.38;2618516;54;20026;-65
2022/01/17 07:59:20;;;;;;;33.15;17.38;;;;;;;2.48;80.41;100548.03;2619320;54;20034;-65
2022/01/17 08:01:50;;;;;;;33.35;17.58;;;;;;;2.48;80.16;100543.63;2618587;47;20026;-65
2022/01/17 08:04:20;;;;;;;29.85;16.38;;;;;;;2.60;80.41;100562.06;2618820;54;20114;-65
2022/01/17 08:06:51;;;;;;;32.00;15.85;;;;;;;2.63;79.96;100549.66;2619104;54;20026;-65
2022/01/17 08:09:25;;;;;;;28.42;15.57;;;;;;;2.65;80.09;100565.22;2619383;54;20034;-65
2022/01/17 08:12:07;;;;;;;27.50;16.43;;;;;;;2.69;80.06;100575.41;2619047;54;20049;-66
2022/01/17 08:14:40;;;;;;;28.67;15.18;;;;;;;2.63;79.41;100582.78;2619438;54;20542;-65
2022/01/17 08:17:11;;;;;;;27.42;14.30;;;;;;;2.60;79.72;100598.63;2620661;39;20550;-64
2022/01/17 08:19:40;;;;;;;28.90;15.40;;;;;;;2.57;79.94;100601.44;2620949;54;20030;-64
2022/01/17 08:22:10;;;;;;;30.77;16.27;;;;;;;2.61;79.91;100608.13;2621101;54;20098;-64
2022/01/17 08:24:42;;;;;;;29.58;16.48;;;;;;;2.70;79.72;100607.56;2622155;54;20038;-64
2022/01/17 08:27:12;;;;;;;28.52;15.18;;;;;;;2.76;80.05;100619.38;2622669;54;20154;-65
2022/01/17 08:29:42;;;;;;;27.35;15.93;;;;;;;2.79;79.43;100624.41;2623150;54;20039;-64
2022/01/17 08:32:32;;;;;;;26.67;14.85;;;;;;;2.88;79.68;100631.66;2620287;39;20490;-65
2022/01/17 08:35:02;;;;;;;29.83;16.20;;;;;;;2.97;79.44;100628.44;2618817;54;20121;-65
2022/01/17 08:37:33;;;;;;;27.55;15.55;;;;;;;2.98;79.05;100625.75;2618470;39;20467;-65
2022/01/17 08:40:07;;;;;;;31.58;16.48;;;;;;;3.06;79.44;100627.00;2619072;54;20050;-65
2022/01/17 08:42:38;;;;;;;27.80;15.00;;;;;;;3.10;79.34;100623.25;2619969;54;20078;-64
2022/01/17 08:45:11;;;;;;;27.02;13.93;;;;;;;3.07;78.75;100611.25;2618850;54;20045;-65
2022/01/17 08:48:00;;;;;;;24.23;14.30;;;;;;;3.11;78.63;100609.28;2618546;54;20042;-65
2022/01/17 08:50:30;;;;;;;25.13;14.52;;;;;;;3.11;79.09;100611.88;2618253;54;20043;-65
2022/01/17 08:53:00;;;;;;;25.15;13.15;;;;;;;3.11;78.90;100601.44;2618667;54;20055;-65
2022/01/17 08:55:32;;;;;;;23.30;13.55;;;;;;;3.12;79.15;100590.03;2618427;54;20030;-65
2022/01/17 08:58:02;;;;;;;21.52;13.02;;;;;;;3.09;79.17;100593.66;2618444;54;20030;-65
2022/01/17 09:00:33;;;;;;;22.52;14.13;;;;;;;3.16;78.93;100589.72;2618405;54;20023;-64
2022/01/17 09:03:20;;;;;;;24.92;14.02;;;;;;;3.09;79.08;100598.91;2618109;54;20038;-65
2022/01/17 09:05:50;;;;;;;22.60;13.35;;;;;;;3.13;79.02;100595.16;2618237;54;20030;-65
2022/01/17 09:08:21;;;;;;;23.67;12.70;;;;;;;3.26;79.37;100607.41;2618454;54;20030;-65
2022/01/17 09:10:56;;;;;;;24.00;13.60;;;;;;;3.24;79.01;100623.19;2619257;54;20073;-65
2022/01/17 09:13:26;;;;;;;23.73;13.52;;;;;;;3.15;78.39;100619.41;2619069;54;20030;-64
2022/01/17 09:15:56;;;;;;;25.98;13.73;;;;;;;3.15;78.99;100626.44;2619571;54;20035;-64
2022/01/17 09:18:26;;;;;;;22.73;13.55;;;;;;;3.14;78.79;100627.34;2618858;54;20035;-65
2022/01/17 09:20:55;;;;;;;22.83;13.95;;;;;;;3.22;78.75;100625.94;2618586;54;20034;-66
2022/01/17 09:23:25;;;;;;;25.90;13.40;;;;;;;3.29;78.93;100612.44;2618701;39;20725;-64
2022/01/17 09:25:57;;;;;;;26.90;14.40;;;;;;;3.30;78.51;100604.47;2618252;54;20034;-64
2022/01/17 09:28:28;;;;;;;27.58;15.95;;;;;;;3.35;78.67;100601.59;2618779;54;20033;-63
2022/01/17 09:30:57;;;;;;;30.20;16.15;;;;;;;3.37;78.59;100608.38;2618865;54;20034;-66
2022/01/17 09:33:27;;;;;;;30.55;17.73;;;;;;;3.30;78.34;100609.72;2618991;39;20713;-64
2022/01/17 09:35:57;;;;;;;30.80;18.38;;;;;;;3.39;78.52;100624.81;2618043;54;20031;-65
2022/01/17 09:38:26;;;;;;;34.03;18.55;;;;;;;3.52;78.43;100637.88;2618197;54;20030;-65
2022/01/17 09:40:59;;;;;;;29.33;16.95;;;;;;;3.55;78.27;100628.97;2618659;54;20042;-65
2022/01/17 09:43:45;;;;;;;33.58;16.20;;;;;;;3.48;78.19;100647.72;2618824;54;20026;-64
2022/01/17 09:46:15;;;;;;;30.80;16.60;;;;;;;3.44;78.07;100648.84;2618583;54;20031;-65
2022/01/17 09:48:48;;;;;;;33.78;19.13;;;;;;;3.58;78.37;100657.56;2618575;54;20027;-65
2022/01/17 09:51:38;;;;;;;31.40;18.25;;;;;;;3.59;78.27;100667.06;2618498;54;20038;-65
2022/01/17 09:54:09;;;;;;;31.90;17.90;;;;;;;3.49;78.19;100664.25;2618570;54;20078;-64
2022/01/17 09:56:43;;;;;;;37.47;19.58;;;;;;;3.32;78.24;100675.81;2618503;54;20031;-64
2022/01/17 09:59:13;;;;;;;34.75;18.30;;;;;;;3.26;78.68;100696.28;2618795;54;20062;-65
2022/01/17 10:01:42;;;;;;;32.53;17.77;;;;;;;3.25;79.07;100687.59;2617952;54;20042;-64
2022/01/17 10:04:13;;;;;;;36.17;18.85;;;;;;;3.21;78.91;100686.13;2618357;54;20043;-65
2022/01/17 10:06:43;;;;;;;32.80;16.88;;;;;;;3.20;78.93;100702.75;2617926;54;20038;-65
2022/01/17 10:09:17;;;;;;;35.22;19.50;;;;;;;3.20;79.09;100694.91;2618142;54;20605;-65
2022/01/17 10:12:06;;;;;;;40.55;20.60;;;;;;;3.23;79.17;100699.94;2617804;54;20034;-65
2022/01/17 10:14:38;;;;;;;36.42;19.23;;;;;;;3.17;79.29;100700.31;2618489;54;20038;-65
2022/01/17 10:17:10;;;;;;;35.42;18.65;;;;;;;3.19;79.64;100688.00;2618465;54;20546;-65
2022/01/17 10:19:40;;;;;;;34.88;18.42;;;;;;;3.21;79.05;100686.94;2617943;54;20026;-64
2022/01/17 10:22:17;;;;;;;35.30;19.55;;;;;;;3.25;79.18;100694.59;2618345;54;20034;-63
2022/01/17 10:24:57;;;;;;;34.10;19.77;;;;;;;3.34;79.11;100696.59;2618278;54;20034;-65
2022/01/17 10:27:56;;;;;;;37.65;19.75;;;;;;;3.42;79.16;100678.66;2618242;46;20107;-63
2022/01/17 10:35:59;;;;;;;31.20;16.90;;;;;;;3.48;78.43;100686.94;2618127;54;20609;-63
2022/01/17 10:38:29;;;;;;;35.00;19.88;;;;;;;3.52;78.32;100682.34;2618492;54;20026;-63
2022/01/17 10:41:02;;;;;;;35.30;18.88;;;;;;;3.53;78.63;100686.63;2618249;54;20061;-63
2022/01/17 10:43:38;;;;;;;36.25;19.05;;;;;;;3.52;78.55;100690.19;2618269;54;20030;-64
2022/01/17 10:46:11;;;;;;;37.10;20.20;;;;;;;3.49;78.52;100677.31;2618218;54;20705;-64
2022/01/17 10:48:45;;;;;;;33.72;18.40;;;;;;;3.52;78.47;100679.72;2618190;47;20057;-64
2022/01/17 10:51:18;;;;;;;35.30;19.02;;;;;;;3.44;78.64;100684.63;2619367;54;20581;-64
2022/01/17 10:53:52;;;;;;;35.97;18.25;;;;;;;3.51;78.53;100698.13;2617943;46;20082;-66
2022/01/17 10:56:27;;;;;;;39.08;19.60;;;;;;;3.54;77.98;100692.69;2618044;54;20069;-64
2022/01/17 10:59:07;;;;;;;39.08;20.70;;;;;;;3.58;78.04;100696.78;2618487;54;20086;-63
2022/01/17 11:01:39;;;;;;;36.55;19.63;;;;;;;3.57;78.45;100692.50;2618344;54;20042;-63
2022/01/17 11:04:10;;;;;;;37.95;20.13;;;;;;;3.58;78.04;100688.94;2617656;54;20034;-64
2022/01/17 11:06:49;;;;;;;35.67;18.65;;;;;;;3.66;77.92;100699.72;2617898;54;20122;-64
2022/01/17 11:09:19;;;;;;;37.10;18.63;;;;;;;3.70;78.24;100702.03;2618146;54;20667;-64
2022/01/17 11:11:50;;;;;;;40.40;20.10;;;;;;;3.80;77.85;100704.06;2618105;54;20030;-64
2022/01/17 11:14:22;;;;;;;37.50;19.52;;;;;;;3.76;77.49;100692.97;2618083;54;20078;-64
2022/01/17 11:16:54;;;;;;;36.47;19.60;;;;;;;3.82;77.34;100689.91;2622063;47;20026;-68
2022/01/17 11:22:06;;;;;;;36.90;19.27;;;;;;;3.93;77.35;100683.97;2624207;54;20030;-68
2022/01/17 11:24:37;;;;;;;33.65;18.67;;;;;;;4.01;77.22;100686.91;2624113;54;20038;-68
2022/01/17 11:27:07;;;;;;;34.50;18.00;;;;;;;4.09;76.49;100686.38;2623661;54;20026;-68
2022/01/17 11:29:40;;;;;;;32.75;17.92;;;;;;;3.96;76.82;100686.38;2624331;54;20027;-69
2022/01/17 11:32:09;;;;;;;35.85;20.02;;;;;;;3.96;76.61;100687.22;2623269;54;20041;-69
2022/01/17 11:34:39;;;;;;;39.80;20.85;;;;;;;3.94;76.63;100696.94;2624707;54;20034;-70
2022/01/17 11:37:09;;;;;;;51.35;23.73;;;;;;;4.01;76.85;100717.47;2623878;54;20030;-70
2022/01/17 11:39:47;;;;;;;58.10;26.02;;;;;;;4.06;76.75;100708.34;2624685;54;20534;-70
2022/01/17 11:42:42;;;;;;;50.67;23.63;;;;;;;4.07;76.40;100710.03;2624166;54;20033;-69
2022/01/17 12:20:32;;;;;;;34.60;17.03;;;;;;;4.01;77.00;100672.97;2611209;46;20037;-67
2022/01/17 12:23:02;;;;;;;31.50;17.70;;;;;;;4.04;76.90;100672.75;2623124;47;20030;-67
2022/01/17 12:25:36;;;;;;;34.88;18.85;;;;;;;4.02;76.77;100669.41;2623002;47;20576;-68
2022/01/17 12:28:32;;;;;;;32.90;19.08;;;;;;;3.92;76.65;100672.66;2623616;54;20026;-67
2022/01/17 12:31:02;;;;;;;35.67;19.35;;;;;;;4.00;77.14;100668.66;2622901;54;20030;-68